createdAt,value
2022-08-12T00:00:35.474Z,47.93
2022-08-12T00:03:21.380Z,47.61
2022-08-12T00:06:08.374Z,47.24
2022-08-12T00:08:56.495Z,46.86
2022-08-12T00:11:42.471Z,47.86
2022-08-12T00:14:28.403Z,48.24
2022-08-12T00:17:13.723Z,49.54
2022-08-12T00:19:59.024Z,49.58
2022-08-12T00:22:44.399Z,49.66
2022-08-12T00:26:05.818Z,50.16
2022-08-12T00:28:35.648Z,48.74
2022-08-12T00:31:20.787Z,45.02
2022-08-12T00:34:05.572Z,44.29
2022-08-12T00:36:50.775Z,45.15
2022-08-12T00:39:35.995Z,44.89
2022-08-12T00:42:11.528Z,46.74
2022-08-12T00:44:43.739Z,45.09
2022-08-12T00:47:25.143Z,46.63
2022-08-12T00:49:53.834Z,48.37
2022-08-12T00:52:20.858Z,48.52
2022-08-12T00:54:49.860Z,47.85
2022-08-12T00:57:29.007Z,47.12
2022-08-12T00:59:57.050Z,48.00
2022-08-12T01:02:29.418Z,48.38
2022-08-12T01:05:23.676Z,49.11
2022-08-12T01:08:09.514Z,48.01
2022-08-12T01:10:57.806Z,49.27
2022-08-12T01:13:25.731Z,49.19
2022-08-12T01:15:55.349Z,50.16
2022-08-12T01:18:28.031Z,51.65
2022-08-12T01:21:07.399Z,51.25
2022-08-12T01:23:45.218Z,51.39
2022-08-12T01:26:16.765Z,51.37
2022-08-12T01:28:44.687Z,51.14
2022-08-12T01:31:16.209Z,51.58
2022-08-12T01:33:57.304Z,52.21
2022-08-12T01:36:26.082Z,54.51
2022-08-12T01:38:56.385Z,53.88
2022-08-12T01:41:26.339Z,54.20
2022-08-12T01:43:54.596Z,54.89
2022-08-12T01:46:25.855Z,55.27
2022-08-12T01:49:21.738Z,56.40
2022-08-12T01:52:16.459Z,56.73
2022-08-12T01:54:44.897Z,56.72
2022-08-12T01:57:59.821Z,57.16
2022-08-12T02:00:43.241Z,58.70
2022-08-12T02:03:31.431Z,59.76
2022-08-12T02:06:29.219Z,59.27
2022-08-12T02:09:17.517Z,59.78
2022-08-12T02:11:58.853Z,60.20
2022-08-12T02:14:40.337Z,59.94
2022-08-12T02:17:28.333Z,60.53
2022-08-12T02:20:51.784Z,59.54
2022-08-12T02:23:21.822Z,59.76
2022-08-12T02:25:50.393Z,59.16
2022-08-12T02:28:16.923Z,59.74
2022-08-12T02:30:43.801Z,60.20
2022-08-12T02:33:11.296Z,60.02
2022-08-12T02:35:39.527Z,60.73
2022-08-12T02:38:08.975Z,61.91
2022-08-12T02:40:38.649Z,61.86
2022-08-12T02:43:17.492Z,61.36
2022-08-12T02:45:57.238Z,61.78
2022-08-12T02:48:30.944Z,61.51
2022-08-12T02:51:04.222Z,62.63
2022-08-12T02:53:32.323Z,62.36
2022-08-12T02:56:02.752Z,62.25
2022-08-12T02:58:35.552Z,62.69
2022-08-12T03:01:04.275Z,62.77
2022-08-12T03:03:32.975Z,63.46
2022-08-12T03:06:09.588Z,63.57
2022-08-12T03:08:40.815Z,63.83
2022-08-12T03:11:14.626Z,64.48
2022-08-12T03:13:42.917Z,64.70
2022-08-12T03:16:09.688Z,65.82
2022-08-12T03:18:36.806Z,64.35
2022-08-12T03:21:04.205Z,64.06
2022-08-12T03:23:31.439Z,63.55
2022-08-12T03:26:02.505Z,63.76
2022-08-12T03:28:49.886Z,63.54
2022-08-12T03:31:34.457Z,64.27
2022-08-12T03:34:04.112Z,62.58
2022-08-12T03:36:35.083Z,61.09
2022-08-12T03:39:35.485Z,61.08
2022-08-12T03:42:22.197Z,60.50
2022-08-12T03:45:16.831Z,62.07
2022-08-12T03:48:18.962Z,61.79
2022-08-12T03:51:06.811Z,63.99
2022-08-12T03:53:52.471Z,64.56
2022-08-12T03:56:37.813Z,63.55
2022-08-12T03:59:24.785Z,63.04
2022-08-12T04:01:58.059Z,61.13
2022-08-12T04:04:25.330Z,60.53
2022-08-12T04:06:52.222Z,60.45
2022-08-12T04:09:21.161Z,60.82
2022-08-12T04:12:06.637Z,61.24
2022-08-12T04:14:33.983Z,61.57
2022-08-12T04:17:01.272Z,63.01
2022-08-12T04:19:27.911Z,62.96
2022-08-12T04:22:01.875Z,62.54
2022-08-12T04:24:31.570Z,62.38
2022-08-12T04:26:58.058Z,62.86
2022-08-12T04:30:31.435Z,62.02
2022-08-12T04:32:12.218Z,62.18
2022-08-12T04:34:39.295Z,62.32
2022-08-12T04:37:05.891Z,63.52
2022-08-12T04:39:32.803Z,62.06
2022-08-12T04:41:59.841Z,62.58
2022-08-12T04:44:28.090Z,63.04
2022-08-12T04:46:55.968Z,63.37
2022-08-12T04:49:24.241Z,62.93
2022-08-12T04:51:57.677Z,62.79
2022-08-12T04:54:27.278Z,62.99
2022-08-12T04:57:03.591Z,63.21
2022-08-12T04:59:48.215Z,64.32
2022-08-12T05:02:21.076Z,64.48
2022-08-12T05:04:51.859Z,64.11
2022-08-12T05:07:19.696Z,63.77
2022-08-12T05:10:00.692Z,62.15
2022-08-12T05:12:38.411Z,61.94
2022-08-12T05:15:19.687Z,62.27
2022-08-12T05:17:52.882Z,63.35
2022-08-12T05:20:20.860Z,63.60
2022-08-12T05:22:47.478Z,63.55
2022-08-12T05:25:15.857Z,62.86
2022-08-12T05:27:55.598Z,64.70
2022-08-12T05:30:30.853Z,65.00
2022-08-12T05:32:59.957Z,65.58
2022-08-12T05:35:27.283Z,65.15
2022-08-12T05:38:13.754Z,65.10
2022-08-12T05:40:41.182Z,65.35
2022-08-12T05:43:08.149Z,64.42
2022-08-12T05:45:34.630Z,64.39
2022-08-12T05:48:02.713Z,64.88
2022-08-12T05:50:29.352Z,64.07
2022-08-12T05:52:55.854Z,64.01
2022-08-12T05:55:25.858Z,64.58
2022-08-12T05:57:55.758Z,64.84
2022-08-12T06:00:25.778Z,64.48
2022-08-12T06:03:02.447Z,64.23
2022-08-12T06:05:54.522Z,64.07
2022-08-12T06:08:22.419Z,64.02
2022-08-12T06:10:51.476Z,63.97
2022-08-12T06:13:28.920Z,63.90
2022-08-12T06:16:07.240Z,64.64
2022-08-12T06:18:34.005Z,64.95
2022-08-12T06:21:01.861Z,64.95
2022-08-12T06:23:28.959Z,65.47
2022-08-12T06:25:56.196Z,65.36
2022-08-12T06:28:23.050Z,65.49
2022-08-12T06:31:14.883Z,66.22
2022-08-12T06:33:55.389Z,66.32
2022-08-12T06:36:29.286Z,66.77
2022-08-12T06:38:56.895Z,66.42
2022-08-12T06:41:41.808Z,66.07
2022-08-12T06:44:28.348Z,66.49
2022-08-12T06:46:54.886Z,66.89
2022-08-12T06:49:23.613Z,66.89
2022-08-12T06:51:53.488Z,67.91
2022-08-12T06:54:30.641Z,67.70
2022-08-12T06:57:14.445Z,68.04
2022-08-12T06:59:44.900Z,68.67
2022-08-12T07:02:11.378Z,68.68
2022-08-12T07:04:39.249Z,69.18
2022-08-12T07:07:09.726Z,69.17
2022-08-12T07:10:01.301Z,69.27
2022-08-12T07:12:36.537Z,69.63
2022-08-12T07:15:03.742Z,69.90
2022-08-12T07:17:35.875Z,70.65
2022-08-12T07:20:10.063Z,71.04
2022-08-12T07:22:39.703Z,71.18
2022-08-12T07:25:24.804Z,71.94
2022-08-12T07:27:55.097Z,73.08
2022-08-12T07:30:23.163Z,72.84
2022-08-12T07:32:51.394Z,74.11
2022-08-12T07:35:18.508Z,73.61
2022-08-12T07:37:46.924Z,72.84
2022-08-12T07:40:13.840Z,71.95
2022-08-12T07:42:43.613Z,71.36
2022-08-12T07:45:12.254Z,66.93
2022-08-12T07:47:41.319Z,63.94
2022-08-12T07:50:09.368Z,63.54
2022-08-12T07:52:44.231Z,62.33
2022-08-12T07:55:12.099Z,60.99
2022-08-12T07:58:11.235Z,58.94
2022-08-12T08:00:40.290Z,58.49
2022-08-12T08:03:08.647Z,58.14
2022-08-12T08:05:45.882Z,56.97
2022-08-12T08:08:16.981Z,55.47
2022-08-12T08:10:43.833Z,55.13
2022-08-12T08:13:12.552Z,54.51
2022-08-12T08:18:27.815Z,42.73
2022-08-12T08:20:56.362Z,45.30
2022-08-12T08:23:34.836Z,50.81
2022-08-12T08:26:01.817Z,50.48
2022-08-12T08:28:28.288Z,40.55
2022-08-12T08:30:54.781Z,47.24
2022-08-12T08:33:23.415Z,43.09
2022-08-12T08:36:16.484Z,46.75
2022-08-12T08:38:56.056Z,41.96
2022-08-12T08:42:15.824Z,41.31
2022-08-12T08:44:30.441Z,37.34
2022-08-12T08:46:56.990Z,44.14
2022-08-12T08:49:23.533Z,44.91
2022-08-12T08:51:50.124Z,44.53
2022-08-12T08:54:16.720Z,36.18
2022-08-12T08:56:49.802Z,37.68
2022-08-12T08:59:19.449Z,43.53
2022-08-12T09:01:46.869Z,41.71
2022-08-12T09:05:08.741Z,39.60
2022-08-12T09:07:17.814Z,38.16
2022-08-12T09:10:02.438Z,35.34
2022-08-12T09:12:54.562Z,39.60
2022-08-12T09:18:12.052Z,38.48
2022-08-12T09:20:40.265Z,36.52
2022-08-12T09:23:59.872Z,35.45
2022-08-12T09:25:57.679Z,33.65
2022-08-12T09:32:03.283Z,32.72
2022-08-12T09:34:29.259Z,30.49
2022-08-12T09:36:58.058Z,31.43
2022-08-12T09:40:05.491Z,30.56
2022-08-12T09:42:43.386Z,34.48
2022-08-12T09:45:23.222Z,33.73
2022-08-12T09:47:59.737Z,32.11
2022-08-12T09:50:27.286Z,30.50
2022-08-12T09:53:14.786Z,30.57
2022-08-12T09:56:07.378Z,32.50
2022-08-12T09:58:57.433Z,34.15
2022-08-12T10:01:23.141Z,30.96
2022-08-12T10:03:55.520Z,33.92
2022-08-12T10:06:36.018Z,31.35
2022-08-12T10:09:08.231Z,35.56
2022-08-12T10:12:11.512Z,37.47
2022-08-12T10:14:39.954Z,35.95
2022-08-12T10:17:20.393Z,30.60
2022-08-12T10:19:52.006Z,30.51
2022-08-12T10:22:37.060Z,31.85
2022-08-12T10:26:35.749Z,31.22
2022-08-12T10:28:30.759Z,29.99
2022-08-12T10:30:59.200Z,34.30
2022-08-12T10:33:31.687Z,29.96
2022-08-12T10:36:00.031Z,28.93
2022-08-12T10:38:34.721Z,29.42
2022-08-12T10:41:57.111Z,30.68
2022-08-12T10:44:16.771Z,29.71
2022-08-12T10:46:46.022Z,30.36
2022-08-12T10:50:02.793Z,30.96
2022-08-12T10:52:32.833Z,32.95
2022-08-12T10:54:51.385Z,31.48
2022-08-12T10:58:12.812Z,32.68
2022-08-12T11:00:33.973Z,28.47
2022-08-12T11:04:20.434Z,31.30
2022-08-12T11:07:09.590Z,29.65
2022-08-12T11:08:37.894Z,29.51
2022-08-12T11:11:13.353Z,28.71
2022-08-12T11:13:46.921Z,29.20
2022-08-12T11:16:21.685Z,28.39
2022-08-12T11:18:54.975Z,28.86
2022-08-12T11:21:22.652Z,29.08
2022-08-12T11:24:30.124Z,28.99
2022-08-12T11:29:24.394Z,28.86
2022-08-12T11:32:01.796Z,29.13
2022-08-12T11:34:51.729Z,29.36
2022-08-12T11:37:26.340Z,28.50
2022-08-12T11:42:35.081Z,29.49
2022-08-12T11:45:03.922Z,28.31
2022-08-12T11:47:31.621Z,27.26
2022-08-12T11:49:58.176Z,28.00
2022-08-12T11:52:38.595Z,27.53
2022-08-12T11:55:14.799Z,26.34
2022-08-12T11:58:19.841Z,26.77
2022-08-12T12:03:26.068Z,26.97
2022-08-12T12:06:10.868Z,27.54
2022-08-12T12:08:47.016Z,27.69
2022-08-12T12:11:17.950Z,27.00
2022-08-12T12:14:08.345Z,27.24
2022-08-12T12:16:31.113Z,27.13
2022-08-12T12:19:00.078Z,26.89
2022-08-12T12:21:47.301Z,27.26
2022-08-12T12:24:13.228Z,26.61
2022-08-12T12:26:39.794Z,27.19
2022-08-12T12:30:14.066Z,26.79
2022-08-12T12:32:10.356Z,26.94
2022-08-12T12:34:37.829Z,27.51
2022-08-12T12:37:05.173Z,28.47
2022-08-12T12:39:54.727Z,27.31
2022-08-12T12:42:45.392Z,26.99
2022-08-12T12:45:19.155Z,27.68
2022-08-12T12:48:07.951Z,29.23
2022-08-12T12:50:45.022Z,26.03
2022-08-12T12:54:08.746Z,27.24
2022-08-12T12:55:59.074Z,26.87
2022-08-12T12:58:25.546Z,27.71
2022-08-12T13:00:53.912Z,27.53
2022-08-12T13:03:21.906Z,25.67
2022-08-12T13:05:53.741Z,26.80
2022-08-12T13:08:28.543Z,26.76
2022-08-12T13:11:04.634Z,26.01
2022-08-12T13:14:07.525Z,26.21
2022-08-12T13:16:23.465Z,26.53
2022-08-12T13:18:52.442Z,26.20
2022-08-12T13:21:32.794Z,26.09
2022-08-12T13:24:09.841Z,26.77
2022-08-12T13:26:37.878Z,26.63
2022-08-12T13:29:04.610Z,25.61
2022-08-12T13:31:31.556Z,25.38
2022-08-12T13:34:33.878Z,24.50
2022-08-12T13:36:50.790Z,25.49
2022-08-12T13:39:21.634Z,25.45
2022-08-12T13:41:49.600Z,24.79
2022-08-12T13:44:16.423Z,25.48
2022-08-12T13:46:43.526Z,25.73
2022-08-12T13:49:53.662Z,27.13
2022-08-12T13:52:11.375Z,24.88
2022-08-12T13:54:37.879Z,25.70
2022-08-12T13:57:04.406Z,26.24
2022-08-12T13:59:48.864Z,25.37
2022-08-12T14:02:22.560Z,25.47
2022-08-12T14:04:56.141Z,25.50
2022-08-12T14:07:23.911Z,25.10
2022-08-12T14:10:11.986Z,26.54
2022-08-12T14:12:53.963Z,25.78
2022-08-12T14:15:21.502Z,25.21
2022-08-12T14:18:23.106Z,26.06
2022-08-12T14:20:50.906Z,25.30
2022-08-12T14:24:04.295Z,26.18
2022-08-12T14:26:11.998Z,24.74
2022-08-12T14:28:39.780Z,24.99
2022-08-12T14:31:18.719Z,25.48
2022-08-12T14:33:52.165Z,25.73
2022-08-12T14:36:20.735Z,26.42
2022-08-12T14:38:49.498Z,26.07
2022-08-12T14:41:21.798Z,26.28
2022-08-12T14:44:04.600Z,25.73
2022-08-12T14:46:37.663Z,25.98
2022-08-12T14:49:27.620Z,25.45
2022-08-12T14:52:55.558Z,26.13
2022-08-12T14:57:00.090Z,25.95
2022-08-12T14:57:35.631Z,26.82
2022-08-12T15:00:30.798Z,27.10
2022-08-12T15:02:57.293Z,25.35
2022-08-12T15:06:05.983Z,26.18
2022-08-12T15:08:12.694Z,26.02
2022-08-12T15:10:45.850Z,26.08
2022-08-12T15:13:23.169Z,27.00
2022-08-12T15:15:49.854Z,26.21
2022-08-12T15:18:21.701Z,26.05
2022-08-12T15:20:48.967Z,25.01
2022-08-12T15:23:21.580Z,26.47
2022-08-12T15:26:02.564Z,24.97
2022-08-12T15:28:32.978Z,26.71
2022-08-12T15:31:00.738Z,26.02
2022-08-12T15:33:44.766Z,26.48
2022-08-12T15:36:13.618Z,26.08
2022-08-12T15:38:40.088Z,26.26
2022-08-12T15:41:06.794Z,24.92
2022-08-12T15:44:14.119Z,26.59
2022-08-12T15:46:25.615Z,25.21
2022-08-12T15:48:52.320Z,26.41
2022-08-12T15:51:58.289Z,27.58
2022-08-12T15:54:33.933Z,26.33
2022-08-12T15:57:05.392Z,25.67
2022-08-12T15:59:51.716Z,26.32
2022-08-12T16:02:19.361Z,25.87
2022-08-12T16:04:50.228Z,24.55
2022-08-12T16:07:25.889Z,26.08
2022-08-12T16:10:06.971Z,26.36
2022-08-12T16:12:43.523Z,27.50
2022-08-12T16:15:25.040Z,25.88
2022-08-12T16:18:25.962Z,27.55
2022-08-12T16:20:46.783Z,25.67
2022-08-12T16:23:36.217Z,29.15
2022-08-12T16:26:06.221Z,27.03
2022-08-12T16:28:41.499Z,27.18
2022-08-12T16:31:14.438Z,27.54
2022-08-12T16:33:58.795Z,27.10
2022-08-12T16:36:28.860Z,27.80
2022-08-12T16:38:55.219Z,28.55
2022-08-12T16:41:22.610Z,27.89
2022-08-12T16:43:49.367Z,27.85
2022-08-12T16:46:31.719Z,27.89
2022-08-12T16:49:09.240Z,28.58
2022-08-12T16:51:46.972Z,28.26
2022-08-12T16:54:16.628Z,30.44
2022-08-12T16:56:55.457Z,30.68
2022-08-12T16:59:52.806Z,31.27
2022-08-12T17:02:31.915Z,32.59
2022-08-12T17:05:03.396Z,31.84
2022-08-12T17:07:37.128Z,31.51
2022-08-12T17:10:09.298Z,31.65
2022-08-12T17:12:37.461Z,31.43
2022-08-12T17:15:50.204Z,31.21
2022-08-12T17:18:38.830Z,31.63
2022-08-12T17:20:46.697Z,33.05
2022-08-12T17:23:18.122Z,32.84
2022-08-12T17:25:52.166Z,32.58
2022-08-12T17:28:21.240Z,33.77
2022-08-12T17:30:57.389Z,32.35
2022-08-12T17:33:26.387Z,33.39
2022-08-12T17:35:58.397Z,34.04
2022-08-12T17:38:24.975Z,33.86
2022-08-12T17:40:51.851Z,35.04
2022-08-12T17:43:54.631Z,34.54
2022-08-12T17:46:12.471Z,35.32
2022-08-12T17:48:54.798Z,36.62
2022-08-12T17:51:24.082Z,36.62
2022-08-12T17:54:05.955Z,34.61
2022-08-12T17:56:39.343Z,36.10
2022-08-12T17:59:12.449Z,36.24
2022-08-12T18:01:43.333Z,36.22
2022-08-12T18:04:22.429Z,36.39
2022-08-12T18:06:51.721Z,37.45
2022-08-12T18:09:18.688Z,37.18
2022-08-12T18:12:07.902Z,36.63
2022-08-12T18:14:37.055Z,37.34
2022-08-12T18:17:08.240Z,36.63
2022-08-12T18:20:03.967Z,36.98
2022-08-12T18:22:30.608Z,37.04
2022-08-12T18:25:05.138Z,37.34
2022-08-12T18:27:44.196Z,37.35
2022-08-12T18:30:16.240Z,37.60
2022-08-12T18:32:58.924Z,37.98
2022-08-12T18:35:46.869Z,37.82
2022-08-12T18:38:19.117Z,38.45
2022-08-12T18:41:04.767Z,37.81
2022-08-12T18:43:37.132Z,37.61
2022-08-12T18:46:53.293Z,38.66
2022-08-12T18:49:30.746Z,38.86
2022-08-12T18:52:04.375Z,39.11
2022-08-12T18:54:41.569Z,39.53
2022-08-12T18:57:19.819Z,39.38
2022-08-12T19:00:06.832Z,39.24
2022-08-12T19:02:39.922Z,39.89
2022-08-12T19:05:10.019Z,39.05
2022-08-12T19:07:50.032Z,39.38
2022-08-12T19:10:28.744Z,39.41
2022-08-12T19:13:24.249Z,38.39
2022-08-12T19:15:58.128Z,38.05
2022-08-12T19:18:29.998Z,38.63
2022-08-12T19:21:00.408Z,39.20
2022-08-12T19:23:35.346Z,39.24
2022-08-12T19:26:03.556Z,39.57
2022-08-12T19:28:34.416Z,39.65
2022-08-12T19:31:56.633Z,39.98
2022-08-12T19:37:16.468Z,40.18
2022-08-12T19:40:09.769Z,40.32
2022-08-12T19:42:32.933Z,40.49
2022-08-12T19:45:04.565Z,40.42
2022-08-12T19:47:38.949Z,40.36
2022-08-12T19:50:06.835Z,40.13
2022-08-12T19:52:39.011Z,40.55
2022-08-12T19:55:11.504Z,40.73
2022-08-12T19:58:01.893Z,40.70
2022-08-12T20:00:29.383Z,40.80
2022-08-12T20:03:00.696Z,40.73
2022-08-12T20:06:05.388Z,40.48
2022-08-12T20:08:27.862Z,40.89
2022-08-12T20:12:10.209Z,40.81
2022-08-12T20:14:01.317Z,40.53
2022-08-12T20:16:52.959Z,41.04
2022-08-12T20:20:01.725Z,40.57
2022-08-12T20:22:24.439Z,40.74
2022-08-12T20:24:57.094Z,40.50
2022-08-12T20:27:29.855Z,40.59
2022-08-12T20:30:13.536Z,40.78
2022-08-12T20:32:51.314Z,40.94
2022-08-12T20:35:24.393Z,40.88
2022-08-12T20:38:06.517Z,40.76
2022-08-12T20:40:33.404Z,40.82
2022-08-12T20:43:00.013Z,40.44
2022-08-12T20:45:26.891Z,40.60
2022-08-12T20:48:12.547Z,40.70
2022-08-12T20:50:42.223Z,40.53
2022-08-12T20:53:33.317Z,40.55
2022-08-12T20:56:19.597Z,40.70
2022-08-12T20:58:46.393Z,40.55
2022-08-12T21:01:15.458Z,41.04
2022-08-12T21:04:05.435Z,40.59
2022-08-12T21:07:08.678Z,40.60
2022-08-12T21:09:42.216Z,40.98
2022-08-12T21:12:28.596Z,41.02
2022-08-12T21:15:23.944Z,40.94
2022-08-12T21:18:09.623Z,40.98
2022-08-12T21:20:36.986Z,41.14
2022-08-12T21:23:05.789Z,41.15
2022-08-12T21:25:44.368Z,41.76
2022-08-12T21:28:12.965Z,43.52
2022-08-12T21:30:54.739Z,41.66
2022-08-12T21:33:30.770Z,41.42
2022-08-12T21:35:58.018Z,42.56
2022-08-12T21:38:34.840Z,42.70
2022-08-12T21:41:07.074Z,43.32
2022-08-12T21:43:45.302Z,42.87
2022-08-12T21:46:34.869Z,42.32
2022-08-12T21:49:04.985Z,40.90
2022-08-12T21:51:49.454Z,40.32
2022-08-12T21:54:22.019Z,40.89
2022-08-12T21:56:49.786Z,40.54
2022-08-12T21:59:17.668Z,40.57
2022-08-12T22:01:48.646Z,41.00
2022-08-12T22:04:34.718Z,41.03
2022-08-12T22:07:01.680Z,41.04
2022-08-12T22:09:29.479Z,41.82
2022-08-12T22:12:27.546Z,42.66
2022-08-12T22:14:54.425Z,42.08
2022-08-12T22:17:20.996Z,41.79
2022-08-12T22:19:50.565Z,43.45
2022-08-12T22:22:17.040Z,42.90
2022-08-12T22:24:45.554Z,42.64
2022-08-12T22:27:31.337Z,43.08
2022-08-12T22:30:19.649Z,43.23
2022-08-12T22:32:49.690Z,44.24
2022-08-12T22:35:55.481Z,43.08
2022-08-12T22:38:19.980Z,43.43
2022-08-12T22:40:48.165Z,44.68
2022-08-12T22:43:34.350Z,44.53
2022-08-12T22:46:19.099Z,46.95
2022-08-12T22:48:50.492Z,45.61
2022-08-12T22:51:22.235Z,46.35
2022-08-12T22:53:54.503Z,46.24
2022-08-12T22:56:30.832Z,46.22
2022-08-12T22:59:02.849Z,46.90
2022-08-12T23:01:52.321Z,47.13
2022-08-12T23:04:27.597Z,46.96
2022-08-12T23:06:58.239Z,45.61
2022-08-12T23:09:34.725Z,45.78
2022-08-12T23:12:34.516Z,48.35
2022-08-12T23:15:04.865Z,46.82
2022-08-12T23:17:40.177Z,45.29
2022-08-12T23:20:07.633Z,46.00
2022-08-12T23:22:37.626Z,45.67
2022-08-12T23:25:04.379Z,45.69
2022-08-12T23:27:52.336Z,45.64
2022-08-12T23:30:31.649Z,45.70
2022-08-12T23:33:01.530Z,45.51
2022-08-12T23:35:53.475Z,45.94
2022-08-12T23:38:30.720Z,46.28
2022-08-12T23:40:59.727Z,47.57
2022-08-12T23:43:26.739Z,48.73
2022-08-12T23:46:08.659Z,49.75
2022-08-12T23:48:35.493Z,49.63
2022-08-12T23:51:21.541Z,49.81
2022-08-12T23:53:50.587Z,49.68
2022-08-12T23:56:17.130Z,49.75
2022-08-12T23:58:52.521Z,49.99
